ADDS METAR Data INFO
IDs: Format: Raw Decoded Include TAF

Data at: 1746 UTC 21 Oct 2017

KMCK 211653Z AUTO 33020G36KT 10SM SCT080 BKN110 13/03 A2986 RMK AO2 PK WND 32040/1557 PRESRR SLP099 T01280033
KMCK 211553Z AUTO 32033G47KT 9SM CLR 13/01 A2982 RMK AO2 PK WND 32047/1550 SLP084 T01280011
KMCK 211453Z AUTO 33032G45KT 6SM HZ SCT070 SCT085 13/00 A2979 RMK AO2 PK WND 32045/1449 SLP073 T01330000 53064
KMCK 211353Z AUTO 31029G40KT 7SM CLR 13/M02 A2969 RMK AO2 PK WND 31040/1350 SLP040 T01331022
KMCK 211253Z AUTO 30021G30KT 10SM CLR 13/02 A2964 RMK AO2 PK WND 29030/1247 PRESRR SLP023 T01280017
KMCK 211153Z AUTO 29015KT 10SM CLR 14/04 A2958 RMK AO2 PK WND 30030/1117 SLP999 T01390044 10194 20139 53037
KMCK 211053Z AUTO 28016G30KT 10SM CLR 14/06 A2953 RMK AO2 PK WND 27030/1048 SLP979 T01440056
KMCK 210953Z AUTO 22016KT 10SM CLR 17/11 A2947 RMK AO2 SLP955 T01670111
KMCK 210853Z AUTO 21017G27KT 10SM CLR 18/12 A2946 RMK AO2 PK WND 20030/0831 SLP951 T01830122 55000
KMCK 210753Z AUTO 19014G27KT 10SM CLR 18/12 A2946 RMK AO2 PK WND 17030/0728 SLP952 T01830122
KMCK 210653Z AUTO 18017G33KT 10SM CLR 19/13 A2945 RMK AO2 PK WND 19036/0641 SLP948 T01890128
KMCK 210553Z AUTO 18017G32KT 10SM CLR 19/14 A2946 RMK AO2 PK WND 17032/0510 SLP955 T01940139 10233 20194 402780122 56009
KMCK 210453Z AUTO 18018G28KT 10SM CLR 19/14 A2947 RMK AO2 PK WND 19032/0442 SLP960 T01940139
KMCK 210353Z AUTO 17022G34KT 10SM CLR 19/14 A2948 RMK AO2 PK WND 16034/0353 SLP965 T01940139
KMCK 210253Z AUTO 17020G32KT 10SM CLR 20/13 A2949 RMK AO2 PK WND 16035/0237 SLP969 T02000133 58010
KMCK 210153Z AUTO 16020G31KT 10SM CLR 21/13 A2951 RMK AO2 PK WND 17032/0119 SLP977 T02110128
KMCK 210053Z AUTO 15015KT 10SM CLR 22/11 A2952 RMK AO2 PK WND 18026/2355 SLP979 T02170111
KMCK 202353Z AUTO 17017G28KT 10SM CLR 23/11 A2952 RMK AO2 PK WND 18033/2256 SLP979 T02330111 10278 20222 55005
KMCK 202253Z AUTO 18025G37KT 9SM CLR 24/11 A2951 RMK AO2 PK WND 18038/2158 SLP975 T02440106
KMCK 202153Z AUTO 17023G34KT 9SM CLR 27/11 A2952 RMK AO2 PK WND 18040/2138 SLP974 T02670106
KMCK 202053Z AUTO 19024G35KT 10SM CLR 28/10 A2954 RMK AO2 PK WND 18035/2052 SLP981 T02780100 56035
KMCK 201953Z AUTO 19017G32KT 10SM CLR 26/11 A2956 RMK AO2 PK WND 19032/1950 SLP990 T02610106
KMCK 201853Z AUTO 18022G30KT 10SM CLR 24/11 A2960 RMK AO2 PK WND 18031/1806 SLP005 T02440111
KMCK 201753Z AUTO 18023G30KT 9SM CLR 23/11 A2965 RMK AO2 PK WND 16030/1752 SLP021 T02280111 10228 20122 58035
KMCK 201653Z AUTO 17018G31KT 10SM CLR 21/11 A2968 RMK AO2 PK WND 19031/1644 SLP033 T02060111
KMCK 201553Z AUTO 17013G21KT 10SM CLR 17/11 A2973 RMK AO2 SLP052 T01720106
KMCK 201453Z AUTO 15010KT 10SM CLR 16/09 A2976 RMK AO2 SLP062 T01610094 58010
KMCK 201353Z AUTO 12005KT 10SM CLR 12/09 A2978 RMK AO2 SLP071 T01220089
KMCK 201253Z AUTO 16007KT 10SM CLR 14/09 A2978 RMK AO2 SLP070 T01390094
KMCK 201153Z AUTO 10SM CLR 14/09 A2979 RMK AO2 SLP073 T01440089 10172 20133 56012
KMCK 201053Z AUTO 23005KT 10SM CLR 14/08 A2980 RMK AO2 SLP074 T01390083
KMCK 200953Z AUTO 18009KT 10SM CLR 14/08 A2981 RMK AO2 SLP074 T01390083
KMCK 200853Z AUTO 19008KT 10SM CLR 14/08 A2983 RMK AO2 SLP081 T01390078 56017
KMCK 200753Z AUTO 20007KT 10SM CLR 15/08 A2985 RMK AO2 SLP087 T01500078
KMCK 200653Z AUTO 18014G20KT 10SM CLR 16/07 A2987 RMK AO2 SLP093 T01560072
KMCK 200553Z AUTO 18015KT 10SM CLR 17/07 A2989 RMK AO2 SLP102 T01720067 10222 20172 402890006 58006